»·PEaware :: N12MZ KSNA-KBUR

N12MZ :: KSNA-KBUR

FLIGHT INFORMATION

Flight Status: Arrived
Operator: Privately registered:
United States
More flights under this callsign
Pilot: Mike Z. (25595)
Aircraft: CESSNA 172 SKYHAWK
(C172)
More flights by this aircraft type
Origin: KSNA John Wayne-Orange Co
United States
Destination: KBUR Bob Hope-Burbank
United States
More flights between these airports :: More routes between these airports
Route: +SLI V23 POPPR SMO125R SMO SMO311R SILEX
File this flight plan on PilotEdge
Remarks: I-3 TEC Route CSTP1
Altitude:
(Current/Filed)
4,000ft
Speed:
(Current/Filed)
110kts
Departed: 25-Aug-19 10:56 AM
Arrived: 25-Aug-19 11:34 AM
Distance/Time
Traveled:
40nm/0:37
Distance/Time
To Go:
Arrived

Flight Plot

Page will automatically refresh every two minutes.


Map Options




Map Legend


Flown Route
Filed Route
Departure Airport
Arrival Airport
Navaid (VOR, NDB)
Fix

Horizontal Profiles

Position Reports

Time Latitude Longitude Heading Altitude Ground
Speed
25-Aug-19 10:45 33.676205 -117.871104 212 60ft 0kts
25-Aug-19 10:46 33.676205 -117.871104 212 60ft 0kts
25-Aug-19 10:47 33.676205 -117.871104 212 60ft 0kts
25-Aug-19 10:48 33.676049 -117.871119 158 60ft 5kts
25-Aug-19 10:49 33.677669 -117.869059 25 60ft 20kts
25-Aug-19 10:50 33.681204 -117.866422 116 60ft 1kts
25-Aug-19 10:51 33.681203 -117.866420 116 60ft 0kts
25-Aug-19 10:52 33.681203 -117.866420 116 60ft 0kts
25-Aug-19 10:53 33.681203 -117.866420 116 60ft 0kts
25-Aug-19 10:54 33.679911 -117.866164 206 60ft 36kts
25-Aug-19 10:55 33.661615 -117.879686 219 535ft 86kts
25-Aug-19 10:56 33.645302 -117.899115 225 1309ft 78kts
25-Aug-19 10:57 33.629004 -117.919055 225 1924ft 88kts
25-Aug-19 10:58 33.608405 -117.944716 225 2011ft 123kts
25-Aug-19 10:59 33.590822 -117.977633 281 2223ft 115kts
25-Aug-19 11:00 33.598648 -118.013590 284 2763ft 107kts
25-Aug-19 11:01 33.605933 -118.044666 284 3535ft 86kts
25-Aug-19 11:02 33.615667 -118.068074 304 4153ft 79kts
25-Aug-19 11:03 33.631713 -118.087390 334 4601ft 93kts
25-Aug-19 11:04 33.655242 -118.107019 322 5002ft 106kts
25-Aug-19 11:05 33.681644 -118.130645 322 5012ft 124kts
25-Aug-19 11:06 33.709651 -118.155335 322 4942ft 128kts
25-Aug-19 11:07 33.738879 -118.182880 319 4327ft 136kts
25-Aug-19 11:08 33.766860 -118.209968 318 4021ft 114kts
25-Aug-19 11:09 33.792136 -118.235135 317 3992ft 122kts
25-Aug-19 11:10 33.817580 -118.261331 316 4021ft 120kts
25-Aug-19 11:11 33.842599 -118.287834 315 4023ft 119kts
25-Aug-19 11:12 33.867357 -118.314811 314 4025ft 119kts
25-Aug-19 11:13 33.893871 -118.339646 321 4026ft 122kts
25-Aug-19 11:14 33.921528 -118.363952 320 4026ft 123kts
25-Aug-19 11:15 33.948902 -118.389435 319 4026ft 124kts
25-Aug-19 11:16 33.976040 -118.415640 318 4026ft 125kts
25-Aug-19 11:17 34.003175 -118.442358 319 4026ft 125kts
25-Aug-19 11:18 34.031822 -118.466421 350 4026ft 127kts
25-Aug-19 11:19 34.067114 -118.471941 350 4026ft 128kts
25-Aug-19 11:20 34.099115 -118.485773 293 4027ft 124kts
25-Aug-19 11:21 34.108664 -118.523219 275 4026ft 121kts
25-Aug-19 11:22 34.134201 -118.549853 324 4026ft 123kts
25-Aug-19 11:23 34.162676 -118.572761 324 4024ft 122kts
25-Aug-19 11:24 34.192781 -118.593379 3 3491ft 129kts
25-Aug-19 11:25 34.198281 -118.557799 93 3017ft 120kts
25-Aug-19 11:26 34.198321 -118.523804 89 3026ft 89kts
25-Aug-19 11:27 34.198156 -118.490155 90 2707ft 98kts
25-Aug-19 11:28 34.197900 -118.462763 88 2286ft 69kts
25-Aug-19 11:29 34.197897 -118.439850 91 1938ft 72kts
25-Aug-19 11:30 34.198624 -118.414290 95 1565ft 76kts
25-Aug-19 11:31 34.198201 -118.389828 92 1121ft 76kts
25-Aug-19 11:32 34.197858 -118.364897 93 722ft 75kts
25-Aug-19 11:33 34.198375 -118.355264 352 705ft 3kts
25-Aug-19 11:34 34.198847 -118.356341 269 710ft 9kts
25-Aug-19 11:35 34.200805 -118.358434 348 721ft 12kts
25-Aug-19 11:36 34.201322 -118.359905 173 725ft 0kts
25-Aug-19 11:37 34.201322 -118.359905 173 725ft 0kts
25-Aug-19 11:38 34.201322 -118.359905 173 725ft 0kts
25-Aug-19 11:39 34.201322 -118.359905 173 725ft 0kts

Navigation Log

Ident Type
Flight plan parsing failed, navigation log unavailable